Terminal Aerodrome Forecast
Issued by NWS Tulsa, OK

Home | Current Version | Previous Version | Text Only | Print | Product List | Glossary Off
Versions: 1 2 3 4 5 6 7 8 9 10 11 12 13 14

942
FTUS44 KTSA 232336
TAFTUL
TAF
KTUL 232336Z 2400/2424 02011KT P6SM VCSH SCT100 BKN250
     FM240300 01006KT P6SM BKN250
     FM241500 05008KT P6SM SKC=

USA.gov is the U.S. government's official web portal to all federal, state and local government web resources and services.